地図

経路データ

SID SEASON NUMBER BASIN SUBBASIN NAME ISO_TIME NATURE LAT LON WMO_WIND WMO_PRES WMO_AGENCY TRACK_TYPE DIST2LAND LANDFALL IFLAG USA_AGENCY USA_ATCF_ID USA_LAT USA_LON USA_RECORD USA_STATUS USA_WIND USA_PRES USA_SSHS USA_R34_NE USA_R34_SE USA_R34_SW USA_R34_NW USA_R50_NE USA_R50_SE USA_R50_SW USA_R50_NW USA_R64_NE USA_R64_SE USA_R64_SW USA_R64_NW USA_POCI USA_ROCI USA_RMW USA_EYE TOKYO_LAT TOKYO_LON TOKYO_GRADE TOKYO_WIND TOKYO_PRES TOKYO_R50_DIR TOKYO_R50_LONG TOKYO_R50_SHORT TOKYO_R30_DIR TOKYO_R30_LONG TOKYO_R30_SHORT TOKYO_LAND CMA_LAT CMA_LON CMA_CAT CMA_WIND CMA_PRES HKO_LAT HKO_LON HKO_CAT HKO_WIND HKO_PRES NEWDELHI_LAT NEWDELHI_LON NEWDELHI_GRADE NEWDELHI_WIND NEWDELHI_PRES NEWDELHI_CI NEWDELHI_DP NEWDELHI_POCI REUNION_LAT REUNION_LON REUNION_TYPE REUNION_WIND REUNION_PRES REUNION_TNUM REUNION_CI REUNION_RMW REUNION_R34_NE REUNION_R34_SE REUNION_R34_SW REUNION_R34_NW REUNION_R50_NE REUNION_R50_SE REUNION_R50_SW REUNION_R50_NW REUNION_R64_NE REUNION_R64_SE REUNION_R64_SW REUNION_R64_NW BOM_LAT BOM_LON BOM_TYPE BOM_WIND BOM_PRES BOM_TNUM BOM_CI BOM_RMW BOM_R34_NE BOM_R34_SE BOM_R34_SW BOM_R34_NW BOM_R50_NE BOM_R50_SE BOM_R50_SW BOM_R50_NW BOM_R64_NE BOM_R64_SE BOM_R64_SW BOM_R64_NW BOM_ROCI BOM_POCI BOM_EYE BOM_POS_METHOD BOM_PRES_METHOD NADI_LAT NADI_LON NADI_CAT NADI_WIND NADI_PRES WELLINGTON_LAT WELLINGTON_LON WELLINGTON_WIND WELLINGTON_PRES DS824_LAT DS824_LON DS824_STAGE DS824_WIND DS824_PRES TD9636_LAT TD9636_LON TD9636_STAGE TD9636_WIND TD9636_PRES TD9635_LAT TD9635_LON TD9635_WIND TD9635_PRES TD9635_ROCI NEUMANN_LAT NEUMANN_LON NEUMANN_CLASS NEUMANN_WIND NEUMANN_PRES MLC_LAT MLC_LON MLC_CLASS MLC_WIND MLC_PRES USA_GUST BOM_GUST BOM_GUST_PER REUNION_GUST REUNION_GUST_PER USA_SEAHGT USA_SEARAD_NE USA_SEARAD_SE USA_SEARAD_SW USA_SEARAD_NW STORM_SPEED STORM_DIR
1971241N12252 1971 101 EP MM MONICA 1971-08-29 00:00:00 TS 12.0000 -108.500 25 hurdat_epa main 886 886 O________OO___ hurdat_epa EP131971 12.0000 -108.500 TD 25 -1 12.0000 -108.500 TC 25 12.0000 -108.500 1 7 260
1971241N12252 1971 101 EP MM MONICA 1971-08-29 03:00:00 TS 11.9399 -108.841 main 914 914 P________PP___ EP131971 11.9351 -108.850 TD 25 -1 11.9351 -108.850 TC 25 11.9590 -108.805 1 7 262
1971241N12252 1971 101 EP MM MONICA 1971-08-29 06:00:00 TS 11.9069 -109.188 25 hurdat_epa main 942 942 O________OP___ hurdat_epa EP131971 11.9000 -109.200 TD 25 -1 11.9000 -109.200 TC 25 11.9343 -109.138 1 7 269
1971241N12252 1971 101 EP MM MONICA 1971-08-29 09:00:00 TS 11.9244 -109.555 main 965 965 P________PP___ EP131971 11.9198 -109.563 TD 25 -1 11.9198 -109.563 TC 25 11.9425 -109.527 1 8 277
1971241N12252 1971 101 EP MM MONICA 1971-08-29 12:00:00 TS 12.0000 -110.000 25 hurdat_epa main 979 979 O________OO___ hurdat_epa EP131971 12.0000 -110.000 TD 25 -1 12.0000 -110.000 TC 25 12.0000 -110.000 2 10 281
1971241N12252 1971 101 EP MM MONICA 1971-08-29 15:00:00 TS 12.1256 -110.582 main 1008 1006 P________PP___ EP131971 12.1276 -110.585 TD 32 -1 12.1276 -110.585 TC 32 12.1174 -110.568 2 12 284
1971241N12252 1971 101 EP MM MONICA 1971-08-29 18:00:00 TS 12.2968 -111.195 40 hurdat_epa main 1032 1032 O________OP___ hurdat_epa EP131971 12.3000 -111.200 TS 40 0 12.3000 -111.200 TC 40 12.2838 -111.174 2 12 287
1971241N12252 1971 101 EP MM MONICA 1971-08-29 21:00:00 TS 12.4846 -111.763 main 1059 1059 P________PP___ EP131971 12.4850 -111.767 TS 40 0 12.4850 -111.767 TC 40 12.4831 -111.743 2 11 292
1971241N12252 1971 101 EP MM MONICA 1971-08-30 00:00:00 TS 12.7000 -112.200 40 hurdat_epa main 1074 1073 O________OO___ hurdat_epa EP131971 12.7000 -112.200 TS 40 0 12.7000 -112.200 TC 40 12.7000 -112.200 2 8 306
1971241N12252 1971 101 EP MM MONICA 1971-08-30 03:00:00 TS 12.9435 -112.417 main 1073 1057 P________PP___ EP131971 12.9498 -112.410 TS 40 0 12.9498 -112.410 TC 40 12.9180 -112.444 2 6 328
1971241N12252 1971 101 EP MM MONICA 1971-08-30 06:00:00 TS 13.1898 -112.514 40 hurdat_epa main 1057 1049 O________OP___ hurdat_epa EP131971 13.2000 -112.500 TS 40 0 13.2000 -112.500 TC 40 13.1491 -112.571 2 5 338
1971241N12252 1971 101 EP MM MONICA 1971-08-30 09:00:00 TS 13.4081 -112.607 main 1049 1042 P________PP___ EP131971 13.4150 -112.600 TS 45 0 13.4150 -112.600 TC 45 13.3807 -112.637 2 5 336
1971241N12252 1971 101 EP MM MONICA 1971-08-30 12:00:00 TS 13.6000 -112.700 50 hurdat_epa main 1042 1035 O________OO___ hurdat_epa EP131971 13.6000 -112.700 TS 50 0 13.6000 -112.700 TC 50 13.6000 -112.700 2 4 327
1971241N12252 1971 101 EP MM MONICA 1971-08-30 15:00:00 TS 13.7579 -112.839 main 1035 1035 P________PP___ EP131971 13.7500 -112.843 TS 50 0 13.7500 -112.843 TC 50 13.7893 -112.823 2 4 318
1971241N12252 1971 101 EP MM MONICA 1971-08-30 18:00:00 TS 13.9130 -112.991 50 hurdat_epa main 1045 1037 O________OP___ hurdat_epa EP131971 13.9000 -113.000 TS 50 0 13.9000 -113.000 TC 50 13.9648 -112.955 2 5 321
1971241N12252 1971 101 EP MM MONICA 1971-08-30 21:00:00 TS 14.1066 -113.130 main 1037 1022 P________PP___ EP131971 14.1000 -113.135 TS 50 0 14.1000 -113.135 TC 50 14.1330 -113.110 2 5 322
1971241N12252 1971 101 EP MM MONICA 1971-08-31 00:00:00 TS 14.3000 -113.300 50 hurdat_epa main 1022 1015 O________OO___ hurdat_epa EP131971 14.3000 -113.300 TS 50 0 14.3000 -113.300 TC 50 14.3000 -113.300 2 5 311
1971241N12252 1971 101 EP MM MONICA 1971-08-31 03:00:00 TS 14.4494 -113.535 main 1019 1006 P________PP___ EP131971 14.4500 -113.528 TS 50 0 14.4500 -113.528 TC 50 14.4468 -113.563 2 6 301
1971241N12252 1971 101 EP MM MONICA 1971-08-31 06:00:00 TS 14.5996 -113.812 50 hurdat_epa main 1010 1003 O________OP___ hurdat_epa EP131971 14.6000 -113.800 TS 50 0 14.6000 -113.800 TC 50 14.5979 -113.858 2 7 300
1971241N12252 1971 101 EP MM MONICA 1971-08-31 09:00:00 TS 14.7770 -114.116 main 1003 997 P________PP___ EP131971 14.7775 -114.108 TS 50 0 14.7775 -114.108 TC 50 14.7749 -114.148 2 7 305
1971241N12252 1971 101 EP MM MONICA 1971-08-31 12:00:00 TS 15.0000 -114.400 50 hurdat_epa main 997 977 O________OO___ hurdat_epa EP131971 15.0000 -114.400 TS 50 0 15.0000 -114.400 TC 50 15.0000 -114.400 2 7 315
1971241N12252 1971 101 EP MM MONICA 1971-08-31 15:00:00 TS 15.2775 -114.632 main 977 959 P________PP___ EP131971 15.2700 -114.637 TS 57 0 15.2700 -114.637 TC 57 15.3077 -114.612 2 7 328
1971241N12252 1971 101 EP MM MONICA 1971-08-31 18:00:00 TS 15.6125 -114.795 65 hurdat_epa main 959 926 O________OP___ hurdat_epa EP131971 15.6000 -114.800 HU 65 1 15.6000 -114.800 TC 65 15.6623 -114.777 2 8 341
1971241N12252 1971 101 EP MM MONICA 1971-08-31 21:00:00 TS 16.0071 -114.898 main 926 889 P________PP___ EP131971 16.0000 -114.902 HU 65 1 16.0000 -114.902 TC 65 16.0358 -114.878 2 8 353
1971241N12252 1971 101 EP MM MONICA 1971-09-01 00:00:00 TS 16.4000 -114.900 65 hurdat_epa main 889 855 O________OO___ hurdat_epa EP131971 16.4000 -114.900 HU 65 1 16.4000 -114.900 TC 65 16.4000 -114.900 4 7 9
1971241N12252 1971 101 EP MM MONICA 1971-09-01 03:00:00 TS 16.7165 -114.784 main 855 816 P________PP___ EP131971 16.7150 -114.780 HU 65 1 16.7150 -114.780 TC 65 16.7226 -114.797 4 7 25
1971241N12252 1971 101 EP MM MONICA 1971-09-01 06:00:00 TS 17.0060 -114.605 65 hurdat_epa main 816 776 O________OP___ hurdat_epa EP131971 17.0000 -114.600 HU 65 1 17.0000 -114.600 TC 65 17.0302 -114.624 4 7 30
1971241N12252 1971 101 EP MM MONICA 1971-09-01 09:00:00 TS 17.3046 -114.424 main 776 743 P________PP___ EP131971 17.3000 -114.420 HU 70 1 17.3000 -114.420 TC 70 17.3227 -114.438 4 7 26
1971241N12252 1971 101 EP MM MONICA 1971-09-01 12:00:00 TS 17.6000 -114.300 75 hurdat_epa main 743 716 O________OO___ hurdat_epa EP131971 17.6000 -114.300 HU 75 1 17.6000 -114.300 TC 75 17.6000 -114.300 4 6 10
1971241N12252 1971 101 EP MM MONICA 1971-09-01 15:00:00 TS 17.9081 -114.312 main 716 697 P________PP___ EP131971 17.9150 -114.320 HU 87 2 17.9150 -114.320 TC 87 17.8805 -114.280 4 6 352
1971241N12252 1971 101 EP MM MONICA 1971-09-01 18:00:00 TS 18.1890 -114.383 100 hurdat_epa main 697 680 O________OP___ hurdat_epa EP131971 18.2000 -114.400 HU 100 3 18.2000 -114.400 TC 100 18.1449 -114.317 4 5 348
1971241N12252 1971 101 EP MM MONICA 1971-09-01 21:00:00 TS 18.4153 -114.427 main 680 670 P________PP___ EP131971 18.4225 -114.435 HU 100 3 18.4225 -114.435 TC 100 18.3868 -114.396 4 4 345
1971241N12252 1971 101 EP MM MONICA 1971-09-02 00:00:00 TS 18.6000 -114.500 100 hurdat_epa main 670 662 O________OO___ hurdat_epa EP131971 18.6000 -114.500 HU 100 3 18.6000 -114.500 TC 100 18.6000 -114.500 4 4 330
1971241N12252 1971 101 EP MM MONICA 1971-09-02 03:00:00 TS 18.7610 -114.637 main 662 661 P________PP___ EP131971 18.7575 -114.642 HU 100 3 18.7575 -114.642 TC 100 18.7748 -114.616 4 4 318
1971241N12252 1971 101 EP MM MONICA 1971-09-02 06:00:00 TS 18.9045 -114.790 100 hurdat_epa main 669 662 O________OP___ hurdat_epa EP131971 18.9000 -114.800 HU 100 3 18.9000 -114.800 TC 100 18.9226 -114.750 4 4 319
1971241N12252 1971 101 EP MM MONICA 1971-09-02 09:00:00 TS 19.0518 -114.909 main 662 662 P________PP___ EP131971 19.0500 -114.915 HU 87 2 19.0500 -114.915 TC 87 19.0591 -114.884 4 4 326
1971241N12252 1971 101 EP MM MONICA 1971-09-02 12:00:00 TS 19.2000 -115.000 75 hurdat_epa main 663 656 O________OO___ hurdat_epa EP131971 19.2000 -115.000 HU 75 1 19.2000 -115.000 TC 75 19.2000 -115.000 4 3 334
1971241N12252 1971 101 EP MM MONICA 1971-09-02 15:00:00 TS 19.3443 -115.060 main 664 651 P________PP___ EP131971 19.3425 -115.058 HU 72 1 19.3425 -115.058 TC 72 19.3515 -115.072 4 3 343
1971241N12252 1971 101 EP MM MONICA 1971-09-02 18:00:00 TS 19.5025 -115.105 70 hurdat_epa main 651 635 O________OP___ hurdat_epa EP131971 19.5000 -115.100 HU 70 1 19.5000 -115.100 TC 70 19.5124 -115.123 4 4 345
1971241N12252 1971 101 EP MM MONICA 1971-09-02 21:00:00 TS 19.6864 -115.152 main 640 621 P________PP___ EP131971 19.6850 -115.150 HU 67 1 19.6850 -115.150 TC 67 19.6922 -115.162 4 4 347
1971241N12252 1971 101 EP MM MONICA 1971-09-03 00:00:00 TS 19.9000 -115.200 65 hurdat_epa main 621 603 O________OO___ hurdat_epa EP131971 19.9000 -115.200 HU 65 1 19.9000 -115.200 TC 65 19.9000 -115.200 4 5 348
1971241N12252 1971 101 EP MM MONICA 1971-09-03 03:00:00 TS 20.1348 -115.254 main 609 582 P________PP___ EP131971 20.1350 -115.250 HU 62 0 20.1350 -115.250 TC 62 20.1341 -115.270 4 5 349
1971241N12252 1971 101 EP MM MONICA 1971-09-03 06:00:00 TS 20.3995 -115.307 60 hurdat_epa main 582 560 O________OP___ hurdat_epa EP131971 20.4000 -115.300 TS 60 0 20.4000 -115.300 TC 60 20.3975 -115.337 4 6 349
1971241N12252 1971 101 EP MM MONICA 1971-09-03 09:00:00 TS 20.6794 -115.369 main 560 534 P________PP___ EP131971 20.6775 -115.365 TS 55 0 20.6775 -115.365 TC 55 20.6872 -115.386 4 6 352
1971241N12252 1971 101 EP MM MONICA 1971-09-03 12:00:00 TS 21.0000 -115.400 50 hurdat_epa main 534 499 O________OO___ hurdat_epa EP131971 21.0000 -115.400 TS 50 0 21.0000 -115.400 TC 50 21.0000 -115.400 6 7 358
1971241N12252 1971 101 EP MM MONICA 1971-09-03 15:00:00 TS 21.3922 -115.370 main 499 460 P________PP___ EP131971 21.4000 -115.373 TS 42 0 21.4000 -115.373 TC 42 21.3609 -115.361 6 8 7
1971241N12252 1971 101 EP MM MONICA 1971-09-03 18:00:00 TS 21.7875 -115.298 35 1005 hurdat_epa main 460 429 O________OP___ hurdat_epa EP131971 21.8000 -115.300 TS 35 1005 0 21.8000 -115.300 TC 35 1005 21.7375 -115.288 6 8 12
1971241N12252 1971 101 EP MM MONICA 1971-09-03 21:00:00 TS 22.1291 -115.205 main 429 398 P________PP___ EP131971 22.1375 -115.208 TS 30 -1 22.1375 -115.208 TC 30 22.0953 -115.196 6 6 17
1971241N12252 1971 101 EP MM MONICA 1971-09-04 00:00:00 TS 22.4000 -115.100 25 hurdat_epa main 398 376 O________OO___ hurdat_epa EP131971 22.4000 -115.100 TD 25 -1 22.4000 -115.100 TC 25 22.4000 -115.100 6 5 23
1971241N12252 1971 101 EP MM MONICA 1971-09-04 03:00:00 TS 22.5833 -114.997 main 376 361 P________PP___ EP131971 22.5725 -114.992 TD 25 -1 22.5725 -114.992 TC 25 22.6265 -115.014 6 4 30
1971241N12252 1971 101 EP MM MONICA 1971-09-04 06:00:00 TS 22.7138 -114.906 25 hurdat_epa main 361 346 O________OP___ hurdat_epa EP131971 22.7000 -114.900 TD 25 -1 22.7000 -114.900 TC 25 22.7875 -114.937 6 3 27
1971241N12252 1971 101 EP MM MONICA 1971-09-04 09:00:00 TS 22.8561 -114.845 main 339 332 P________PP___ EP131971 22.8500 -114.842 TD 25 -1 22.8500 -114.842 TC 25 22.9047 -114.867 6 3 18
1971241N12252 1971 101 EP MM MONICA 1971-09-04 12:00:00 TS 23.0000 -114.800 25 hurdat_epa main 332 317 O________OO___ hurdat_epa EP131971 23.0000 -114.800 TD 25 -1 23.0000 -114.800 TC 25 23.0000 -114.800 6 3 18
1971241N12252 1971 101 EP MM MONICA 1971-09-04 15:00:00 TS 23.1575 -114.743 main 310 304 P________P____ EP131971 23.1575 -114.743 TD 25 -1 23.1575 -114.743 TC 25 6 3 16
1971241N12252 1971 101 EP MM MONICA 1971-09-04 18:00:00 MX 23.3000 -114.700 25 hurdat_epa main 304 297 O________O____ hurdat_epa EP131971 23.3000 -114.700 TD 25 -1 23.3000 -114.700 25 6 3 10
1971241N12252 1971 101 EP MM MONICA 1971-09-04 21:00:00 MX 23.4100 -114.690 main 297 292 P________P____ EP131971 23.4100 -114.690 TD 25 -1 23.4100 -114.690 25 6 2 8
1971241N12252 1971 101 EP MM MONICA 1971-09-05 00:00:00 MX 23.5000 -114.700 25 hurdat_epa main 292 O________O____ hurdat_epa EP131971 23.5000 -114.700 TD 25 -1 23.5000 -114.700 25 2 0

IBTrACS Databaseについて

本データベースは、米国NOAAが公開する1842年以降の世界の熱帯低気圧のベストトラックデータアーカイブInternational Best Track Archive for Climate Stewardship (IBTrACS)を、ウェブで閲覧しやすい形式に変換したものです。

最終更新日:2021-11-26